RYR5606 LMML-EHAM
Flight info
| Callsign | RYR5606 |
|---|---|
| Flight time | N/A |
| Altitude | 38000 |
| Route | GZO3B GZO M622 SOPIR DCT MABOX DCT ADEXI DCT SUKOM DCT LUMAV DCT UNIMI DCT MOGTI DCT KPT DCT HAREM DCT LOHRE DCT EBIPA DCT MAPOX DCT NORKU NORKU2A |
| Aircraft | B738/M-SDE3/L |
Departure
| Time | 2026-04-29 15:18 |
|---|---|
| Airport | Malta International Airport (LMML) |
Arrival
| Time | N/A |
|---|---|
| Airport | Amsterdam Airport Schiphol (EHAM) |
| Time | Latitude | Longitude | Altitude | Speed | Heading |
|---|---|---|---|---|---|
| 2026-04-29 14:59 | 35.85497 | 14.48403 | 271 ft | 0 kts | 359° |
| 2026-04-29 15:14 | 35.85502 | 14.48401 | 271 ft | 2 kts | 345° |
| 2026-04-29 15:15 | 35.85504 | 14.48386 | 273 ft | 2 kts | 253° |
| 2026-04-29 15:15 | 35.85491 | 14.48366 | 271 ft | 4 kts | 242° |
| 2026-04-29 15:15 | 35.85504 | 14.48325 | 272 ft | 10 kts | 313° |
| 2026-04-29 15:15 | 35.85562 | 14.48254 | 271 ft | 12 kts | 315° |
| 2026-04-29 15:16 | 35.85636 | 14.48206 | 271 ft | 12 kts | 340° |
| 2026-04-29 15:16 | 35.85659 | 14.48123 | 271 ft | 11 kts | 269° |
| 2026-04-29 15:16 | 35.85658 | 14.48032 | 271 ft | 11 kts | 273° |
| 2026-04-29 15:16 | 35.85666 | 14.47950 | 271 ft | 10 kts | 240° |
| 2026-04-29 15:17 | 35.85616 | 14.47914 | 271 ft | 8 kts | 168° |
| 2026-04-29 15:17 | 35.85600 | 14.47931 | 272 ft | 0 kts | 135° |
| 2026-04-29 15:17 | 35.85532 | 14.48014 | 271 ft | 49 kts | 135° |
| 2026-04-29 15:18 | 35.84849 | 14.48864 | 259 ft | 154 kts | 134° |
| 2026-04-29 15:18 | 35.84023 | 14.49888 | 965 ft | 166 kts | 133° |
| 2026-04-29 15:18 | 35.83222 | 14.50865 | 2128 ft | 165 kts | 140° |
| 2026-04-29 15:18 | 35.82061 | 14.51452 | 2534 ft | 203 kts | 174° |
| 2026-04-29 15:19 | 35.80606 | 14.50967 | 2884 ft | 236 kts | 212° |
| 2026-04-29 15:19 | 35.79533 | 14.49336 | 3456 ft | 256 kts | 239° |
| 2026-04-29 15:19 | 35.78693 | 14.47319 | 4095 ft | 272 kts | 239° |
| 2026-04-29 15:19 | 35.77771 | 14.45258 | 4986 ft | 278 kts | 238° |
| 2026-04-29 15:20 | 35.76942 | 14.43103 | 6023 ft | 280 kts | 255° |
| 2026-04-29 15:20 | 35.76993 | 14.40709 | 7023 ft | 286 kts | 285° |
| 2026-04-29 15:20 | 35.78022 | 14.38642 | 8036 ft | 289 kts | 312° |
| 2026-04-29 15:20 | 35.79580 | 14.37078 | 9247 ft | 285 kts | 323° |
| 2026-04-29 15:21 | 35.81232 | 14.35741 | 10144 ft | 290 kts | 325° |
| 2026-04-29 15:21 | 35.82976 | 14.34361 | 10623 ft | 310 kts | 324° |
| 2026-04-29 15:21 | 35.84871 | 14.32853 | 10829 ft | 337 kts | 325° |
| 2026-04-29 15:21 | 35.86882 | 14.31244 | 11354 ft | 349 kts | 324° |
| 2026-04-29 15:22 | 35.88934 | 14.29595 | 12162 ft | 353 kts | 324° |
| 2026-04-29 15:22 | 35.90989 | 14.27936 | 13054 ft | 354 kts | 324° |
| 2026-04-29 15:22 | 35.93057 | 14.26260 | 13900 ft | 357 kts | 323° |
| 2026-04-29 15:22 | 35.95143 | 14.24563 | 14647 ft | 360 kts | 323° |
| 2026-04-29 15:23 | 35.97248 | 14.22847 | 15400 ft | 364 kts | 323° |
| 2026-04-29 15:23 | 35.99366 | 14.21117 | 16146 ft | 366 kts | 323° |
| 2026-04-29 15:23 | 36.01498 | 14.19375 | 16916 ft | 369 kts | 323° |
| 2026-04-29 15:23 | 36.03651 | 14.17614 | 17621 ft | 373 kts | 323° |
| 2026-04-29 15:24 | 36.05829 | 14.15830 | 18295 ft | 378 kts | 323° |
| 2026-04-29 15:24 | 36.08029 | 14.14027 | 18900 ft | 381 kts | 323° |
| 2026-04-29 15:24 | 36.10241 | 14.12214 | 19565 ft | 382 kts | 323° |
| 2026-04-29 15:24 | 36.11711 | 14.11009 | 20000 ft | 383 kts | 323° |
| 2026-04-29 15:25 | 36.13939 | 14.09180 | 20631 ft | 386 kts | 323° |
| 2026-04-29 15:25 | 36.16181 | 14.07338 | 21244 ft | 388 kts | 323° |
| 2026-04-29 15:25 | 36.19187 | 14.04866 | 21953 ft | 393 kts | 323° |
| 2026-04-29 15:25 | 36.21475 | 14.02984 | 22552 ft | 395 kts | 323° |
| 2026-04-29 15:26 | 36.23027 | 14.01707 | 22954 ft | 397 kts | 323° |
| 2026-04-29 15:26 | 36.25331 | 13.99809 | 23531 ft | 399 kts | 323° |
| 2026-04-29 15:26 | 36.27652 | 13.97895 | 23984 ft | 402 kts | 323° |
| 2026-04-29 15:26 | 36.29950 | 13.96000 | 24460 ft | 403 kts | 322° |
| 2026-04-29 15:27 | 36.32295 | 13.94064 | 24957 ft | 404 kts | 322° |
| 2026-04-29 15:27 | 36.34642 | 13.92125 | 25432 ft | 406 kts | 322° |
| 2026-04-29 15:27 | 36.36995 | 13.90180 | 25887 ft | 407 kts | 322° |
| 2026-04-29 15:27 | 36.39360 | 13.88223 | 26332 ft | 409 kts | 321° |
| 2026-04-29 15:28 | 36.41736 | 13.86255 | 26764 ft | 411 kts | 321° |
| 2026-04-29 15:28 | 36.44123 | 13.84277 | 27162 ft | 414 kts | 321° |
| 2026-04-29 15:28 | 36.46499 | 13.82306 | 27524 ft | 416 kts | 321° |
| 2026-04-29 15:28 | 36.48913 | 13.80303 | 27969 ft | 417 kts | 321° |
| 2026-04-29 15:29 | 36.51323 | 13.78282 | 28380 ft | 418 kts | 320° |
| 2026-04-29 15:29 | 36.56054 | 13.74056 | 29164 ft | 420 kts | 318° |
| 2026-04-29 15:30 | 36.60746 | 13.69789 | 30283 ft | 413 kts | 318° |
| 2026-04-29 15:30 | 36.63061 | 13.67691 | 30815 ft | 409 kts | 317° |
| 2026-04-29 15:30 | 36.65364 | 13.65609 | 31222 ft | 409 kts | 317° |
| 2026-04-29 15:30 | 36.67670 | 13.63523 | 31565 ft | 410 kts | 317° |
| 2026-04-29 15:31 | 36.69946 | 13.61467 | 31984 ft | 409 kts | 317° |
| 2026-04-29 15:31 | 36.72242 | 13.59394 | 32444 ft | 406 kts | 317° |
| 2026-04-29 15:31 | 36.74524 | 13.57334 | 32894 ft | 404 kts | 317° |
| 2026-04-29 15:31 | 36.76796 | 13.55281 | 33292 ft | 403 kts | 317° |
| 2026-04-29 15:32 | 36.79066 | 13.53226 | 33664 ft | 402 kts | 317° |
| 2026-04-29 15:32 | 36.81302 | 13.51201 | 34068 ft | 401 kts | 317° |
| 2026-04-29 15:32 | 36.83581 | 13.49135 | 34400 ft | 400 kts | 317° |
| 2026-04-29 15:32 | 36.85837 | 13.47084 | 34613 ft | 402 kts | 317° |
| 2026-04-29 15:33 | 36.88107 | 13.45019 | 34857 ft | 403 kts | 317° |
| 2026-04-29 15:33 | 36.90374 | 13.42956 | 35169 ft | 403 kts | 317° |
| 2026-04-29 15:33 | 36.92638 | 13.40899 | 35413 ft | 403 kts | 317° |
| 2026-04-29 15:33 | 36.94911 | 13.38831 | 35658 ft | 404 kts | 317° |
| 2026-04-29 15:34 | 36.97184 | 13.36764 | 35947 ft | 404 kts | 317° |
| 2026-04-29 15:34 | 37.01744 | 13.32607 | 36014 ft | 405 kts | 317° |
| 2026-04-29 15:35 | 37.06259 | 13.28491 | 36011 ft | 398 kts | 317° |
| 2026-04-29 15:35 | 37.10725 | 13.24406 | 36022 ft | 397 kts | 317° |
| 2026-04-29 15:36 | 37.15162 | 13.20340 | 36023 ft | 398 kts | 317° |
| 2026-04-29 15:36 | 37.19634 | 13.16243 | 36017 ft | 398 kts | 317° |
| 2026-04-29 15:37 | 37.24108 | 13.12135 | 36028 ft | 399 kts | 317° |
| 2026-04-29 15:37 | 37.28632 | 13.07991 | 36029 ft | 407 kts | 317° |
| 2026-04-29 15:38 | 37.33397 | 13.04029 | 36019 ft | 418 kts | 327° |
| 2026-04-29 15:38 | 37.38996 | 13.01655 | 36014 ft | 435 kts | 342° |
| 2026-04-29 15:39 | 37.44981 | 13.00607 | 36022 ft | 438 kts | 345° |
| 2026-04-29 15:39 | 37.51024 | 12.99660 | 36034 ft | 437 kts | 345° |
| 2026-04-29 15:40 | 37.57057 | 12.98684 | 36030 ft | 436 kts | 344° |
| 2026-04-29 15:40 | 37.63061 | 12.97678 | 36026 ft | 435 kts | 344° |
| 2026-04-29 15:41 | 37.69047 | 12.96661 | 36031 ft | 433 kts | 344° |
| 2026-04-29 15:41 | 37.75029 | 12.95639 | 36026 ft | 432 kts | 344° |
| 2026-04-29 15:42 | 37.80987 | 12.94621 | 36028 ft | 431 kts | 344° |
| 2026-04-29 15:42 | 37.86933 | 12.93603 | 36030 ft | 430 kts | 344° |
| 2026-04-29 15:43 | 37.92828 | 12.92593 | 36033 ft | 429 kts | 344° |
| 2026-04-29 15:43 | 37.98747 | 12.91576 | 36035 ft | 430 kts | 344° |
| 2026-04-29 15:44 | 38.04682 | 12.90555 | 36027 ft | 431 kts | 344° |
| 2026-04-29 15:44 | 38.10630 | 12.89531 | 36027 ft | 431 kts | 344° |
| 2026-04-29 15:45 | 38.16581 | 12.88504 | 36022 ft | 432 kts | 344° |
| 2026-04-29 15:45 | 38.22547 | 12.87473 | 36032 ft | 433 kts | 345° |
| 2026-04-29 15:46 | 38.28522 | 12.86439 | 36027 ft | 434 kts | 345° |
| 2026-04-29 15:46 | 38.34514 | 12.85400 | 36019 ft | 435 kts | 345° |
| 2026-04-29 15:47 | 38.40528 | 12.84356 | 36019 ft | 436 kts | 345° |
| 2026-04-29 15:47 | 38.46509 | 12.83316 | 36022 ft | 437 kts | 346° |
| 2026-04-29 15:48 | 38.52541 | 12.82265 | 36020 ft | 438 kts | 346° |
| 2026-04-29 15:48 | 38.58586 | 12.81211 | 36020 ft | 438 kts | 346° |
| 2026-04-29 15:49 | 38.64637 | 12.80154 | 36021 ft | 439 kts | 346° |
| 2026-04-29 15:49 | 38.70690 | 12.79093 | 36023 ft | 439 kts | 346° |
| 2026-04-29 15:50 | 38.76755 | 12.78030 | 36018 ft | 440 kts | 346° |
| 2026-04-29 15:50 | 38.82818 | 12.76965 | 36019 ft | 439 kts | 346° |
| 2026-04-29 15:51 | 38.88851 | 12.75903 | 36026 ft | 440 kts | 346° |
| 2026-04-29 15:51 | 38.94896 | 12.74838 | 36012 ft | 440 kts | 346° |
| 2026-04-29 15:52 | 39.00987 | 12.73762 | 36014 ft | 440 kts | 346° |
| 2026-04-29 15:52 | 39.07006 | 12.72697 | 36016 ft | 440 kts | 346° |
| 2026-04-29 15:53 | 39.13045 | 12.71627 | 36031 ft | 440 kts | 347° |
| 2026-04-29 15:53 | 39.19207 | 12.70533 | 36015 ft | 441 kts | 347° |
| 2026-04-29 15:54 | 39.25212 | 12.69465 | 36018 ft | 440 kts | 347° |
| 2026-04-29 15:54 | 39.31358 | 12.68371 | 36017 ft | 440 kts | 347° |
| 2026-04-29 15:55 | 39.37389 | 12.67294 | 36019 ft | 440 kts | 347° |
| 2026-04-29 15:55 | 39.43424 | 12.66216 | 36020 ft | 440 kts | 347° |
| 2026-04-29 15:56 | 39.49533 | 12.65122 | 36019 ft | 440 kts | 347° |
| 2026-04-29 15:56 | 39.55566 | 12.64039 | 36018 ft | 440 kts | 347° |
| 2026-04-29 15:57 | 39.61651 | 12.62945 | 36026 ft | 441 kts | 347° |
| 2026-04-29 15:57 | 39.67672 | 12.61862 | 36022 ft | 441 kts | 347° |
| 2026-04-29 15:58 | 39.73831 | 12.60751 | 36027 ft | 441 kts | 347° |
| 2026-04-29 15:58 | 39.79866 | 12.59661 | 36038 ft | 441 kts | 347° |
| 2026-04-29 15:59 | 39.85945 | 12.58560 | 36026 ft | 441 kts | 347° |
| 2026-04-29 15:59 | 39.92011 | 12.57460 | 36025 ft | 441 kts | 347° |
| 2026-04-29 16:00 | 39.98076 | 12.56359 | 36030 ft | 441 kts | 347° |
| 2026-04-29 16:00 | 40.04154 | 12.55253 | 36034 ft | 441 kts | 347° |
| 2026-04-29 16:01 | 40.10231 | 12.54145 | 36032 ft | 441 kts | 347° |
| 2026-04-29 16:01 | 40.16310 | 12.53035 | 36024 ft | 441 kts | 347° |
| 2026-04-29 16:02 | 40.22393 | 12.51922 | 36031 ft | 440 kts | 347° |
| 2026-04-29 16:02 | 40.28431 | 12.50815 | 36034 ft | 441 kts | 348° |
| 2026-04-29 16:03 | 40.34509 | 12.49699 | 36028 ft | 441 kts | 348° |
| 2026-04-29 16:03 | 40.40588 | 12.48581 | 36029 ft | 441 kts | 348° |
| 2026-04-29 16:04 | 40.46671 | 12.47460 | 36036 ft | 440 kts | 348° |
| 2026-04-29 16:04 | 40.52626 | 12.46360 | 36033 ft | 440 kts | 348° |
| 2026-04-29 16:05 | 40.58813 | 12.45216 | 36032 ft | 440 kts | 348° |
| 2026-04-29 16:05 | 40.64843 | 12.44099 | 36031 ft | 440 kts | 348° |
| 2026-04-29 16:06 | 40.70865 | 12.42981 | 36042 ft | 440 kts | 348° |
| 2026-04-29 16:06 | 40.76980 | 12.41844 | 36031 ft | 440 kts | 348° |
| 2026-04-29 16:07 | 40.83035 | 12.40716 | 36031 ft | 439 kts | 348° |
| 2026-04-29 16:07 | 40.89052 | 12.39592 | 36033 ft | 439 kts | 348° |
| 2026-04-29 16:08 | 40.95101 | 12.38461 | 36037 ft | 439 kts | 348° |
| 2026-04-29 16:08 | 41.01146 | 12.37328 | 36035 ft | 438 kts | 348° |
| 2026-04-29 16:09 | 41.07176 | 12.36196 | 36035 ft | 438 kts | 348° |
| 2026-04-29 16:09 | 41.13224 | 12.35059 | 36045 ft | 438 kts | 348° |
| 2026-04-29 16:10 | 41.19263 | 12.33921 | 36035 ft | 438 kts | 348° |
| 2026-04-29 16:10 | 41.25241 | 12.32793 | 36036 ft | 438 kts | 348° |
| 2026-04-29 16:11 | 41.31320 | 12.31643 | 36037 ft | 437 kts | 348° |
| 2026-04-29 16:11 | 41.36330 | 12.30694 | 36046 ft | 437 kts | 348° |
| 2026-04-29 16:12 | 41.42359 | 12.29550 | 36036 ft | 437 kts | 348° |
| 2026-04-29 16:12 | 41.49285 | 12.28233 | 36046 ft | 437 kts | 348° |
| 2026-04-29 16:13 | 41.55295 | 12.27088 | 36058 ft | 437 kts | 348° |
| 2026-04-29 16:13 | 41.60396 | 12.26114 | 36043 ft | 437 kts | 348° |
| 2026-04-29 16:14 | 41.66415 | 12.24963 | 36053 ft | 437 kts | 348° |
| 2026-04-29 16:14 | 41.72435 | 12.23810 | 36053 ft | 436 kts | 348° |
| 2026-04-29 16:15 | 41.78461 | 12.22654 | 36058 ft | 436 kts | 348° |
| 2026-04-29 16:15 | 41.84435 | 12.21505 | 36055 ft | 436 kts | 348° |
| 2026-04-29 16:16 | 41.90444 | 12.20348 | 36057 ft | 436 kts | 348° |
| 2026-04-29 16:16 | 41.96459 | 12.19187 | 36066 ft | 436 kts | 348° |
| 2026-04-29 16:16 | 41.99427 | 12.18613 | 36226 ft | 436 kts | 348° |
| 2026-04-29 16:17 | 42.02420 | 12.18034 | 36212 ft | 436 kts | 348° |
| 2026-04-29 16:17 | 42.08430 | 12.16870 | 36181 ft | 435 kts | 348° |
| 2026-04-29 16:18 | 42.14419 | 12.15707 | 36145 ft | 435 kts | 348° |
| 2026-04-29 16:18 | 42.20408 | 12.14542 | 36045 ft | 435 kts | 348° |
| 2026-04-29 16:19 | 42.26398 | 12.13375 | 36045 ft | 434 kts | 348° |
| 2026-04-29 16:19 | 42.32341 | 12.12215 | 36058 ft | 434 kts | 348° |
| 2026-04-29 16:20 | 42.38305 | 12.11048 | 36064 ft | 434 kts | 348° |
| 2026-04-29 16:20 | 42.44281 | 12.09876 | 36045 ft | 435 kts | 348° |
| 2026-04-29 16:21 | 42.50278 | 12.08699 | 36047 ft | 435 kts | 348° |
| 2026-04-29 16:21 | 42.56234 | 12.07527 | 36047 ft | 435 kts | 348° |
| 2026-04-29 16:22 | 42.62206 | 12.06351 | 36057 ft | 435 kts | 348° |
| 2026-04-29 16:22 | 42.68204 | 12.05166 | 36044 ft | 435 kts | 348° |
| 2026-04-29 16:23 | 42.74183 | 12.03982 | 36028 ft | 435 kts | 348° |
| 2026-04-29 16:23 | 42.80135 | 12.02802 | 36048 ft | 435 kts | 348° |
| 2026-04-29 16:24 | 42.86209 | 12.01596 | 36030 ft | 435 kts | 348° |
| 2026-04-29 16:24 | 42.92205 | 12.00402 | 36031 ft | 435 kts | 348° |
| 2026-04-29 16:25 | 42.98196 | 11.99207 | 36033 ft | 436 kts | 348° |
| 2026-04-29 16:25 | 43.04203 | 11.98007 | 36032 ft | 436 kts | 348° |
| 2026-04-29 16:26 | 43.10150 | 11.96816 | 36020 ft | 436 kts | 348° |
| 2026-04-29 16:26 | 43.16182 | 11.95606 | 36017 ft | 435 kts | 348° |
| 2026-04-29 16:27 | 43.22166 | 11.94403 | 36033 ft | 434 kts | 348° |
| 2026-04-29 16:27 | 43.28065 | 11.93215 | 36019 ft | 434 kts | 348° |
| 2026-04-29 16:28 | 43.34080 | 11.92001 | 36018 ft | 433 kts | 348° |
| 2026-04-29 16:28 | 43.40039 | 11.90796 | 36022 ft | 433 kts | 348° |
| 2026-04-29 16:29 | 43.45950 | 11.89598 | 36034 ft | 432 kts | 347° |
| 2026-04-29 16:29 | 43.51954 | 11.88379 | 36020 ft | 432 kts | 347° |
| 2026-04-29 16:30 | 43.57897 | 11.87170 | 36028 ft | 431 kts | 347° |
| 2026-04-29 16:30 | 43.63843 | 11.85958 | 36042 ft | 430 kts | 347° |
| 2026-04-29 16:31 | 43.69764 | 11.84748 | 36044 ft | 430 kts | 347° |
| 2026-04-29 16:31 | 43.75686 | 11.83536 | 36043 ft | 430 kts | 347° |
| 2026-04-29 16:32 | 43.81615 | 11.82320 | 36066 ft | 430 kts | 347° |
| 2026-04-29 16:32 | 43.87521 | 11.81107 | 36055 ft | 428 kts | 347° |
| 2026-04-29 16:33 | 43.96235 | 11.79312 | 36059 ft | 427 kts | 347° |
| 2026-04-29 16:33 | 44.02167 | 11.78086 | 36097 ft | 427 kts | 347° |
| 2026-04-29 16:34 | 44.08088 | 11.76861 | 36078 ft | 427 kts | 347° |
| 2026-04-29 16:34 | 44.13900 | 11.75655 | 36077 ft | 427 kts | 347° |
| 2026-04-29 16:35 | 44.19840 | 11.74422 | 36101 ft | 426 kts | 347° |
| 2026-04-29 16:35 | 44.25707 | 11.73200 | 36108 ft | 426 kts | 347° |
| 2026-04-29 16:36 | 44.31529 | 11.71985 | 36136 ft | 426 kts | 347° |
| 2026-04-29 16:36 | 44.37398 | 11.70758 | 36128 ft | 426 kts | 347° |
| 2026-04-29 16:37 | 44.43266 | 11.69529 | 36128 ft | 425 kts | 347° |
| 2026-04-29 16:37 | 44.48061 | 11.68523 | 36106 ft | 425 kts | 347° |
| 2026-04-29 16:38 | 44.54887 | 11.67088 | 36105 ft | 424 kts | 347° |
| 2026-04-29 16:38 | 44.60679 | 11.65886 | 36134 ft | 424 kts | 347° |
| 2026-04-29 16:39 | 44.66573 | 11.64673 | 36121 ft | 424 kts | 347° |
| 2026-04-29 16:39 | 44.72417 | 11.63465 | 36117 ft | 424 kts | 347° |
| 2026-04-29 16:40 | 44.78206 | 11.62264 | 36130 ft | 423 kts | 347° |
| 2026-04-29 16:40 | 44.84028 | 11.61003 | 36145 ft | 422 kts | 346° |
| 2026-04-29 16:41 | 44.89796 | 11.59499 | 36146 ft | 421 kts | 345° |
| 2026-04-29 16:41 | 44.95550 | 11.57953 | 36139 ft | 421 kts | 345° |
| 2026-04-29 16:42 | 45.01306 | 11.56427 | 36161 ft | 420 kts | 345° |
| 2026-04-29 16:42 | 45.07027 | 11.54925 | 36127 ft | 420 kts | 345° |
| 2026-04-29 16:43 | 45.12788 | 11.53416 | 36137 ft | 420 kts | 345° |
| 2026-04-29 16:43 | 45.18525 | 11.51910 | 36131 ft | 419 kts | 345° |
| 2026-04-29 16:44 | 45.24157 | 11.50430 | 36131 ft | 419 kts | 345° |
| 2026-04-29 16:44 | 45.29995 | 11.48891 | 36121 ft | 419 kts | 345° |
| 2026-04-29 16:45 | 45.35724 | 11.47377 | 36119 ft | 418 kts | 345° |
| 2026-04-29 16:45 | 45.41390 | 11.45878 | 36132 ft | 418 kts | 345° |
| 2026-04-29 16:46 | 45.47141 | 11.44352 | 36121 ft | 418 kts | 345° |
| 2026-04-29 16:46 | 45.52785 | 11.42852 | 36100 ft | 418 kts | 345° |
| 2026-04-29 16:47 | 45.58585 | 11.41308 | 36105 ft | 418 kts | 345° |
| 2026-04-29 16:47 | 45.64217 | 11.39802 | 36115 ft | 418 kts | 344° |
| 2026-04-29 16:48 | 45.70005 | 11.38256 | 36116 ft | 418 kts | 344° |
| 2026-04-29 16:48 | 45.75647 | 11.36745 | 36114 ft | 419 kts | 344° |
| 2026-04-29 16:49 | 45.81362 | 11.35211 | 36135 ft | 418 kts | 344° |
| 2026-04-29 16:49 | 45.87070 | 11.33677 | 36135 ft | 418 kts | 344° |
| 2026-04-29 16:50 | 45.92844 | 11.32117 | 36152 ft | 418 kts | 344° |
| 2026-04-29 16:50 | 45.98573 | 11.30568 | 36148 ft | 420 kts | 344° |
| 2026-04-29 16:51 | 46.04301 | 11.29017 | 36146 ft | 421 kts | 344° |
| 2026-04-29 16:51 | 46.10043 | 11.27459 | 36138 ft | 420 kts | 344° |
| 2026-04-29 16:52 | 46.15858 | 11.25879 | 36131 ft | 419 kts | 344° |
| 2026-04-29 16:52 | 46.21588 | 11.24318 | 36156 ft | 417 kts | 343° |
| 2026-04-29 16:53 | 46.27243 | 11.22774 | 36165 ft | 416 kts | 343° |
| 2026-04-29 16:53 | 46.32906 | 11.21224 | 36165 ft | 413 kts | 343° |
| 2026-04-29 16:54 | 46.38534 | 11.19682 | 36189 ft | 411 kts | 343° |
| 2026-04-29 16:54 | 46.44154 | 11.18136 | 36148 ft | 412 kts | 343° |
| 2026-04-29 16:55 | 46.49800 | 11.16579 | 36139 ft | 412 kts | 343° |
| 2026-04-29 16:55 | 46.55379 | 11.15039 | 36137 ft | 413 kts | 343° |
| 2026-04-29 16:56 | 46.61079 | 11.13463 | 36132 ft | 413 kts | 343° |
| 2026-04-29 16:56 | 46.66619 | 11.11927 | 36159 ft | 411 kts | 343° |
| 2026-04-29 16:57 | 46.72288 | 11.10353 | 36122 ft | 411 kts | 343° |
| 2026-04-29 16:57 | 46.77869 | 11.08797 | 36140 ft | 412 kts | 343° |
| 2026-04-29 16:58 | 46.83517 | 11.07222 | 36148 ft | 412 kts | 343° |
| 2026-04-29 16:58 | 46.88989 | 11.04763 | 36158 ft | 404 kts | 331° |
| 2026-04-29 16:59 | 46.94133 | 11.01330 | 36151 ft | 404 kts | 331° |
| 2026-04-29 16:59 | 46.99244 | 10.97929 | 36132 ft | 402 kts | 331° |
| 2026-04-29 17:00 | 47.04349 | 10.94563 | 36146 ft | 401 kts | 331° |
| 2026-04-29 17:00 | 47.09406 | 10.91236 | 36146 ft | 401 kts | 331° |
| 2026-04-29 17:01 | 47.13592 | 10.88480 | 36147 ft | 400 kts | 331° |
| 2026-04-29 17:01 | 47.19578 | 10.84530 | 36156 ft | 400 kts | 331° |
| 2026-04-29 17:02 | 47.23726 | 10.81782 | 36142 ft | 400 kts | 331° |
| 2026-04-29 17:02 | 47.28785 | 10.78434 | 36127 ft | 399 kts | 331° |
| 2026-04-29 17:03 | 47.33914 | 10.75021 | 36159 ft | 400 kts | 332° |
| 2026-04-29 17:03 | 47.38986 | 10.71562 | 36170 ft | 401 kts | 327° |
| 2026-04-29 17:04 | 47.43552 | 10.67056 | 36172 ft | 399 kts | 322° |
| 2026-04-29 17:04 | 47.48093 | 10.62341 | 36180 ft | 401 kts | 322° |
| 2026-04-29 17:05 | 47.52680 | 10.57613 | 36199 ft | 403 kts | 322° |
| 2026-04-29 17:05 | 47.57322 | 10.52842 | 36179 ft | 405 kts | 323° |
| 2026-04-29 17:06 | 47.61940 | 10.48089 | 36180 ft | 406 kts | 323° |
| 2026-04-29 17:06 | 47.66578 | 10.43304 | 36180 ft | 407 kts | 323° |
| 2026-04-29 17:07 | 47.71222 | 10.38503 | 36177 ft | 408 kts | 323° |
| 2026-04-29 17:07 | 47.76167 | 10.34199 | 36203 ft | 412 kts | 335° |
| 2026-04-29 17:08 | 47.81566 | 10.31535 | 36177 ft | 415 kts | 340° |
| 2026-04-29 17:08 | 47.87140 | 10.28911 | 36192 ft | 415 kts | 339° |
| 2026-04-29 17:09 | 47.92549 | 10.26329 | 36187 ft | 416 kts | 339° |
| 2026-04-29 17:09 | 47.98160 | 10.23619 | 36200 ft | 416 kts | 339° |
| 2026-04-29 17:10 | 48.03669 | 10.20940 | 36185 ft | 416 kts | 340° |
| 2026-04-29 17:10 | 48.09099 | 10.18295 | 36189 ft | 416 kts | 340° |
| 2026-04-29 17:11 | 48.14690 | 10.15566 | 36187 ft | 417 kts | 340° |
| 2026-04-29 17:11 | 48.20115 | 10.12911 | 36182 ft | 417 kts | 340° |
| 2026-04-29 17:12 | 48.25689 | 10.10176 | 36192 ft | 417 kts | 341° |
| 2026-04-29 17:12 | 48.30307 | 10.07907 | 36189 ft | 417 kts | 341° |
| 2026-04-29 17:13 | 48.36724 | 10.04746 | 36201 ft | 417 kts | 341° |
| 2026-04-29 17:13 | 48.42220 | 10.02033 | 36195 ft | 417 kts | 341° |
| 2026-04-29 17:14 | 48.47762 | 9.99289 | 36203 ft | 417 kts | 341° |
| 2026-04-29 17:14 | 48.53276 | 9.96554 | 36206 ft | 417 kts | 341° |
| 2026-04-29 17:15 | 48.58790 | 9.93813 | 36223 ft | 417 kts | 341° |
| 2026-04-29 17:15 | 48.64288 | 9.91073 | 36210 ft | 417 kts | 341° |
| 2026-04-29 17:16 | 48.69794 | 9.88322 | 36212 ft | 418 kts | 342° |
| 2026-04-29 17:16 | 48.75308 | 9.85562 | 36233 ft | 418 kts | 342° |
| 2026-04-29 17:17 | 48.80837 | 9.82787 | 36219 ft | 419 kts | 342° |
| 2026-04-29 17:17 | 48.86378 | 9.80000 | 36225 ft | 419 kts | 342° |
| 2026-04-29 17:18 | 48.91872 | 9.77233 | 36237 ft | 419 kts | 342° |
| 2026-04-29 17:18 | 48.97386 | 9.74445 | 36227 ft | 419 kts | 342° |
| 2026-04-29 17:19 | 49.02907 | 9.71647 | 36214 ft | 419 kts | 343° |
| 2026-04-29 17:19 | 49.08446 | 9.68834 | 36232 ft | 419 kts | 343° |
| 2026-04-29 17:20 | 49.13952 | 9.66032 | 36249 ft | 418 kts | 343° |
| 2026-04-29 17:20 | 49.19465 | 9.63220 | 36237 ft | 418 kts | 343° |
| 2026-04-29 17:21 | 49.25034 | 9.60373 | 36237 ft | 418 kts | 343° |
| 2026-04-29 17:21 | 49.30588 | 9.57526 | 36240 ft | 417 kts | 343° |
| 2026-04-29 17:22 | 49.36063 | 9.54713 | 36237 ft | 417 kts | 343° |
| 2026-04-29 17:22 | 49.41568 | 9.51878 | 36246 ft | 417 kts | 343° |
| 2026-04-29 17:23 | 49.47064 | 9.49041 | 36240 ft | 417 kts | 343° |
| 2026-04-29 17:23 | 49.52572 | 9.46191 | 36255 ft | 416 kts | 343° |
| 2026-04-29 17:24 | 49.57991 | 9.43381 | 36242 ft | 416 kts | 344° |
| 2026-04-29 17:24 | 49.63632 | 9.41817 | 36272 ft | 411 kts | 360° |
| 2026-04-29 17:25 | 49.69323 | 9.42472 | 36279 ft | 411 kts | 7° |
| 2026-04-29 17:25 | 49.74984 | 9.43453 | 36270 ft | 412 kts | 7° |
| 2026-04-29 17:26 | 49.80688 | 9.44405 | 36270 ft | 413 kts | 7° |
| 2026-04-29 17:26 | 49.86410 | 9.45328 | 36281 ft | 413 kts | 7° |
| 2026-04-29 17:27 | 49.92132 | 9.46245 | 36278 ft | 413 kts | 6° |
| 2026-04-29 17:27 | 49.97877 | 9.45533 | 36286 ft | 419 kts | 348° |
| 2026-04-29 17:28 | 50.03426 | 9.42631 | 36286 ft | 421 kts | 343° |
| 2026-04-29 17:28 | 50.08912 | 9.39566 | 36286 ft | 421 kts | 344° |
| 2026-04-29 17:29 | 50.14424 | 9.36502 | 36297 ft | 420 kts | 344° |
| 2026-04-29 17:29 | 50.19039 | 9.33966 | 36293 ft | 419 kts | 344° |
| 2026-04-29 17:30 | 50.25436 | 9.30493 | 36306 ft | 418 kts | 344° |
| 2026-04-29 17:30 | 50.30926 | 9.27494 | 36313 ft | 418 kts | 345° |
| 2026-04-29 17:31 | 50.36413 | 9.24481 | 36271 ft | 418 kts | 345° |
| 2026-04-29 17:31 | 50.41885 | 9.21467 | 36297 ft | 417 kts | 345° |
| 2026-04-29 17:32 | 50.47360 | 9.18445 | 36317 ft | 417 kts | 345° |
| 2026-04-29 17:32 | 50.52827 | 9.15420 | 36327 ft | 417 kts | 345° |
| 2026-04-29 17:33 | 50.58271 | 9.12400 | 36328 ft | 417 kts | 345° |
| 2026-04-29 17:33 | 50.63757 | 9.09351 | 36328 ft | 418 kts | 345° |
| 2026-04-29 17:34 | 50.69241 | 9.06295 | 36330 ft | 418 kts | 345° |
| 2026-04-29 17:34 | 50.74737 | 9.03223 | 36338 ft | 418 kts | 345° |
| 2026-04-29 17:35 | 50.82974 | 8.98606 | 36338 ft | 419 kts | 345° |
| 2026-04-29 17:36 | 50.88455 | 8.95483 | 36351 ft | 418 kts | 345° |
| 2026-04-29 17:36 | 50.93907 | 8.92411 | 36351 ft | 418 kts | 345° |
| 2026-04-29 17:37 | 50.99385 | 8.89329 | 36350 ft | 418 kts | 345° |
| 2026-04-29 17:37 | 51.04857 | 8.86240 | 36358 ft | 417 kts | 345° |
| 2026-04-29 17:38 | 51.10326 | 8.83105 | 36352 ft | 418 kts | 342° |
| 2026-04-29 17:38 | 51.15355 | 8.78238 | 36356 ft | 431 kts | 325° |
| 2026-04-29 17:39 | 51.19628 | 8.71432 | 36342 ft | 436 kts | 319° |
| 2026-04-29 17:39 | 51.23798 | 8.64413 | 36349 ft | 436 kts | 319° |
| 2026-04-29 17:40 | 51.27983 | 8.57411 | 36330 ft | 435 kts | 320° |
| 2026-04-29 17:40 | 51.32178 | 8.50423 | 36340 ft | 436 kts | 320° |
| 2026-04-29 17:41 | 51.36361 | 8.43485 | 36353 ft | 436 kts | 320° |
| 2026-04-29 17:41 | 51.40569 | 8.36474 | 36342 ft | 437 kts | 319° |
| 2026-04-29 17:42 | 51.44781 | 8.29437 | 36347 ft | 437 kts | 319° |
| 2026-04-29 17:42 | 51.48998 | 8.22396 | 36346 ft | 437 kts | 320° |
| 2026-04-29 17:43 | 51.53190 | 8.15345 | 36305 ft | 430 kts | 320° |
| 2026-04-29 17:43 | 51.55229 | 8.11899 | 36094 ft | 422 kts | 320° |
| 2026-04-29 17:43 | 51.57230 | 8.08516 | 35839 ft | 413 kts | 320° |
| 2026-04-29 17:43 | 51.59183 | 8.05225 | 35460 ft | 410 kts | 321° |
| 2026-04-29 17:44 | 51.61146 | 8.01934 | 35109 ft | 406 kts | 321° |
| 2026-04-29 17:44 | 51.63092 | 7.98659 | 34750 ft | 403 kts | 321° |
| 2026-04-29 17:44 | 51.65019 | 7.95404 | 34393 ft | 400 kts | 321° |
| 2026-04-29 17:44 | 51.66931 | 7.92166 | 33983 ft | 397 kts | 321° |
| 2026-04-29 17:45 | 51.68851 | 7.88913 | 33612 ft | 407 kts | 321° |
| 2026-04-29 17:45 | 51.70863 | 7.85518 | 33243 ft | 427 kts | 321° |
| 2026-04-29 17:45 | 51.72955 | 7.81982 | 32850 ft | 446 kts | 320° |
| 2026-04-29 17:45 | 51.75118 | 7.78305 | 32433 ft | 452 kts | 320° |
| 2026-04-29 17:46 | 51.77276 | 7.74607 | 31984 ft | 452 kts | 320° |
| 2026-04-29 17:46 | 51.79336 | 7.71061 | 31595 ft | 449 kts | 320° |
| 2026-04-29 17:46 | 51.80825 | 7.68499 | 31314 ft | 447 kts | 320° |
| 2026-04-29 17:46 | 51.83644 | 7.63645 | 30799 ft | 444 kts | 320° |
| 2026-04-29 17:47 | 51.85752 | 7.60017 | 30407 ft | 441 kts | 320° |
| 2026-04-29 17:47 | 51.87169 | 7.57577 | 30106 ft | 440 kts | 320° |
| 2026-04-29 17:47 | 51.89259 | 7.53977 | 29671 ft | 437 kts | 320° |
| 2026-04-29 17:47 | 51.92006 | 7.49238 | 29123 ft | 433 kts | 320° |
| 2026-04-29 17:48 | 51.93370 | 7.46880 | 28849 ft | 431 kts | 319° |
| 2026-04-29 17:48 | 51.95418 | 7.43341 | 28437 ft | 433 kts | 319° |
| 2026-04-29 17:48 | 51.97518 | 7.39718 | 28043 ft | 448 kts | 319° |
| 2026-04-29 17:48 | 51.99663 | 7.36009 | 27607 ft | 452 kts | 319° |
| 2026-04-29 17:49 | 52.01807 | 7.32278 | 27146 ft | 449 kts | 318° |
| 2026-04-29 17:49 | 52.03931 | 7.28573 | 26732 ft | 447 kts | 318° |
| 2026-04-29 17:49 | 52.06040 | 7.24892 | 26311 ft | 444 kts | 318° |
| 2026-04-29 17:49 | 52.08140 | 7.21223 | 25904 ft | 442 kts | 318° |
| 2026-04-29 17:50 | 52.10228 | 7.17572 | 25492 ft | 440 kts | 318° |
| 2026-04-29 17:50 | 52.12306 | 7.13934 | 25086 ft | 438 kts | 318° |
| 2026-04-29 17:50 | 52.14372 | 7.10313 | 24682 ft | 436 kts | 318° |
| 2026-04-29 17:50 | 52.16428 | 7.06704 | 24268 ft | 434 kts | 318° |